createdAt,value
2019-02-06T00:02:10.215Z,100789.67
2019-02-06T00:04:39.821Z,100790.19
2019-02-06T00:07:09.222Z,100784.02
2019-02-06T00:09:38.581Z,100790.84
2019-02-06T00:12:08.256Z,100783.52
2019-02-06T00:14:37.845Z,100787.44
2019-02-06T00:17:07.455Z,100781.89
2019-02-06T00:19:37.095Z,100774.26
2019-02-06T00:22:08.737Z,100775.77
2019-02-06T00:24:38.184Z,100772.80
2019-02-06T00:27:07.787Z,100774.67
2019-02-06T00:29:37.159Z,100774.36
2019-02-06T00:32:07.055Z,100775.55
2019-02-06T00:34:36.671Z,100775.04
2019-02-06T00:37:06.216Z,100772.58
2019-02-06T00:39:36.057Z,100768.25
2019-02-06T00:42:05.497Z,100772.70
2019-02-06T00:44:45.302Z,100761.42
2019-02-06T00:47:14.937Z,100763.77
2019-02-06T00:49:44.302Z,100767.84
2019-02-06T00:52:13.909Z,100772.07
2019-02-06T00:54:43.287Z,100776.55
2019-02-06T00:57:13.038Z,100762.87
2019-02-06T00:59:42.412Z,100761.93
2019-02-06T01:02:11.919Z,100756.80
2019-02-06T01:04:41.287Z,100755.86
2019-02-06T01:07:10.663Z,100748.34
2019-02-06T01:09:40.035Z,100748.29
2019-02-06T01:12:09.812Z,100743.81
2019-02-06T01:14:40.094Z,100743.44
2019-02-06T01:17:09.639Z,100738.64
2019-02-06T01:19:39.034Z,100734.05
2019-02-06T01:22:08.394Z,100733.48
2019-02-06T01:24:38.089Z,100730.39
2019-02-06T01:27:07.459Z,100732.58
2019-02-06T01:29:36.830Z,100732.83
2019-02-06T01:32:06.209Z,100735.18
2019-02-06T01:34:35.586Z,100737.78
2019-02-06T01:37:05.022Z,100729.73
2019-02-06T01:39:34.398Z,100732.80
2019-02-06T01:42:03.767Z,100734.94
2019-02-06T01:44:33.421Z,100734.81
2019-02-06T01:47:02.864Z,100733.44
2019-02-06T01:49:32.225Z,100733.05
2019-02-06T01:52:01.591Z,100729.12
2019-02-06T01:54:30.962Z,100723.67
2019-02-06T01:57:00.332Z,100718.97
2019-02-06T01:59:29.984Z,100721.04
2019-02-06T02:01:59.355Z,100715.78
2019-02-06T02:04:28.729Z,100709.93
2019-02-06T02:06:58.098Z,100708.36
2019-02-06T02:09:27.483Z,100708.86
2019-02-06T02:11:56.850Z,100706.92
2019-02-06T02:14:26.676Z,100703.33
2019-02-06T02:16:56.054Z,100703.17
2019-02-06T02:19:25.812Z,100697.32
2019-02-06T02:21:56.837Z,100696.13
2019-02-06T02:24:26.242Z,100690.66
2019-02-06T02:26:55.611Z,100689.73
2019-02-06T02:29:25.278Z,100685.31
2019-02-06T02:31:54.716Z,100681.51
2019-02-06T02:34:24.083Z,100674.00
2019-02-06T02:36:53.479Z,100662.38
2019-02-06T02:39:22.853Z,100654.30
2019-02-06T02:41:52.288Z,100654.30
2019-02-06T02:44:22.106Z,100654.92
2019-02-06T02:46:51.499Z,100647.80
2019-02-06T02:49:22.064Z,100642.17
2019-02-06T02:51:51.460Z,100640.98
2019-02-06T02:54:20.847Z,100637.91
2019-02-06T02:56:50.334Z,100633.34
2019-02-06T02:59:19.875Z,100632.19
2019-02-06T03:01:56.678Z,100632.09
2019-02-06T03:04:27.417Z,100620.16
2019-02-06T03:06:56.821Z,100617.24
2019-02-06T03:09:26.200Z,100621.81
2019-02-06T03:11:55.973Z,100619.16
2019-02-06T03:14:25.342Z,100609.71
2019-02-06T03:16:54.774Z,100611.78
2019-02-06T03:19:24.854Z,100607.72
2019-02-06T03:21:54.321Z,100602.50
2019-02-06T03:24:23.695Z,100600.56
2019-02-06T03:26:54.300Z,100604.31
2019-02-06T03:29:23.672Z,100598.91
2019-02-06T03:31:53.325Z,100598.28
2019-02-06T03:34:22.696Z,100596.40
2019-02-06T03:36:52.085Z,100591.95
2019-02-06T03:39:21.819Z,100592.33
2019-02-06T03:41:51.498Z,100586.23
2019-02-06T03:44:20.909Z,100590.52
2019-02-06T03:46:51.301Z,100589.27
2019-02-06T03:49:20.691Z,100587.30
2019-02-06T03:51:50.358Z,100589.55
2019-02-06T03:54:19.729Z,100593.36
2019-02-06T03:56:49.636Z,100585.23
2019-02-06T03:59:19.029Z,100588.36
2019-02-06T04:01:48.436Z,100584.13
2019-02-06T04:04:17.825Z,100582.35
2019-02-06T04:06:55.138Z,100587.01
2019-02-06T04:09:18.297Z,100584.08
2019-02-06T04:11:48.078Z,100583.09
2019-02-06T04:14:17.733Z,100577.88
2019-02-06T04:16:47.111Z,100584.72
2019-02-06T04:19:16.498Z,100578.37
2019-02-06T04:21:46.370Z,100577.38
2019-02-06T04:24:15.727Z,100575.96
2019-02-06T04:26:45.316Z,100576.13
2019-02-06T04:29:14.694Z,100565.02
2019-02-06T04:32:03.673Z,100574.93
2019-02-06T04:34:33.343Z,100572.00
2019-02-06T04:37:06.839Z,100561.73
2019-02-06T04:39:34.206Z,100556.95
2019-02-06T04:42:04.599Z,100537.50
2019-02-06T04:44:33.958Z,100533.59
2019-02-06T04:47:04.233Z,100535.23
2019-02-06T04:49:33.608Z,100539.88
2019-02-06T04:52:03.254Z,100545.47
2019-02-06T04:54:32.621Z,100550.42
2019-02-06T04:57:01.996Z,100542.44
2019-02-06T04:59:31.371Z,100540.09
2019-02-06T05:02:00.751Z,100523.73
2019-02-06T05:04:30.364Z,100514.05
2019-02-06T05:07:00.075Z,100511.79
2019-02-06T05:09:29.461Z,100513.62
2019-02-06T05:11:58.838Z,100513.20
2019-02-06T05:14:28.210Z,100525.25
2019-02-06T05:16:57.601Z,100521.24
2019-02-06T05:19:26.981Z,100518.67
2019-02-06T05:21:56.355Z,100512.33
2019-02-06T05:24:25.973Z,100496.72
2019-02-06T05:26:55.344Z,100498.59
2019-02-06T05:29:24.949Z,100502.94
2019-02-06T05:31:54.309Z,100506.13
2019-02-06T05:34:23.758Z,100499.95
2019-02-06T05:36:53.242Z,100502.11
2019-02-06T05:39:22.598Z,100498.34
2019-02-06T05:41:52.201Z,100494.44
2019-02-06T05:44:21.589Z,100490.94
2019-02-06T05:46:50.943Z,100492.41
2019-02-06T05:49:20.311Z,100482.84
2019-02-06T05:51:49.676Z,100479.47
2019-02-06T05:54:19.334Z,100479.10
2019-02-06T05:56:48.701Z,100482.13
2019-02-06T05:59:18.192Z,100482.75
2019-02-06T06:01:47.593Z,100476.96
2019-02-06T06:04:17.080Z,100479.84
2019-02-06T06:06:46.506Z,100473.83
2019-02-06T06:09:17.929Z,100473.26
2019-02-06T06:11:47.526Z,100465.95
2019-02-06T06:14:16.904Z,100468.38
2019-02-06T06:16:46.264Z,100467.80
2019-02-06T06:19:15.658Z,100466.22
2019-02-06T06:21:45.072Z,100462.77
2019-02-06T06:24:15.430Z,100464.53
2019-02-06T06:26:44.800Z,100458.38
2019-02-06T06:29:14.171Z,100450.27
2019-02-06T06:31:43.553Z,100451.98
2019-02-06T06:34:13.022Z,100451.09
2019-02-06T06:36:42.433Z,100455.62
2019-02-06T06:39:14.750Z,100447.01
2019-02-06T06:41:44.144Z,100443.59
2019-02-06T06:44:13.599Z,100442.90
2019-02-06T06:46:42.989Z,100443.63
2019-02-06T06:49:15.294Z,100448.34
2019-02-06T06:51:44.693Z,100445.56
2019-02-06T06:54:14.497Z,100449.63
2019-02-06T06:56:43.965Z,100449.46
2019-02-06T06:59:13.370Z,100447.11
2019-02-06T07:01:42.976Z,100443.60
2019-02-06T07:04:12.347Z,100447.66
2019-02-06T07:06:41.733Z,100443.98
2019-02-06T07:09:11.624Z,100444.27
2019-02-06T07:11:41.024Z,100440.42
2019-02-06T07:14:10.426Z,100437.42
2019-02-06T07:16:59.141Z,100435.99
2019-02-06T07:19:28.504Z,100436.43
2019-02-06T07:21:57.900Z,100438.03
2019-02-06T07:24:27.276Z,100440.45
2019-02-06T07:26:56.654Z,100434.28
2019-02-06T07:29:26.029Z,100433.34
2019-02-06T07:31:55.399Z,100444.37
2019-02-06T07:34:24.836Z,100441.27
2019-02-06T07:36:54.210Z,100441.55
2019-02-06T07:39:23.641Z,100438.05
2019-02-06T07:41:53.361Z,100442.48
2019-02-06T07:44:22.709Z,100438.18
2019-02-06T07:46:52.085Z,100442.80
2019-02-06T07:49:21.708Z,100443.98
2019-02-06T07:51:51.164Z,100443.61
2019-02-06T07:54:20.866Z,100444.97
2019-02-06T07:56:50.265Z,100451.36
2019-02-06T07:59:19.642Z,100450.87
2019-02-06T08:01:49.029Z,100439.66
2019-02-06T08:04:18.398Z,100443.83
2019-02-06T08:06:48.043Z,100441.94
2019-02-06T08:09:17.650Z,100447.80
2019-02-06T08:11:47.017Z,100448.20
2019-02-06T08:14:16.695Z,100450.22
2019-02-06T08:16:46.070Z,100440.86
2019-02-06T08:19:15.461Z,100446.31
2019-02-06T08:21:45.251Z,100443.74
2019-02-06T08:24:14.661Z,100446.53
2019-02-06T08:26:43.991Z,100446.52
2019-02-06T08:29:13.383Z,100443.20
2019-02-06T08:31:42.819Z,100440.52
2019-02-06T08:34:12.171Z,100446.85
2019-02-06T08:36:41.931Z,100448.00
2019-02-06T08:39:11.306Z,100449.68
2019-02-06T08:41:40.847Z,100446.70
2019-02-06T08:44:10.213Z,100440.58
2019-02-06T08:46:39.592Z,100448.59
2019-02-06T08:49:11.008Z,100452.66
2019-02-06T08:51:40.667Z,100453.21
2019-02-06T08:54:10.042Z,100455.48
2019-02-06T08:56:39.422Z,100458.13
2019-02-06T08:59:09.196Z,100455.28
2019-02-06T09:01:38.617Z,100462.55
2019-02-06T09:04:08.064Z,100460.73
2019-02-06T09:06:37.697Z,100461.02
2019-02-06T09:09:09.974Z,100467.11
2019-02-06T09:11:39.437Z,100467.75
2019-02-06T09:14:09.223Z,100477.79
2019-02-06T09:16:38.823Z,100480.69
2019-02-06T09:19:08.195Z,100476.81
2019-02-06T09:21:37.644Z,100475.77
2019-02-06T09:24:07.053Z,100472.62
2019-02-06T09:26:36.398Z,100477.75
2019-02-06T09:29:06.168Z,100482.02
2019-02-06T09:31:36.544Z,100482.48
2019-02-06T09:34:05.930Z,100478.50
2019-02-06T09:36:35.474Z,100479.59
2019-02-06T09:39:11.654Z,100482.38
2019-02-06T09:41:40.040Z,100487.45
2019-02-06T09:44:09.923Z,100484.44
2019-02-06T09:46:39.287Z,100488.13
2019-02-06T09:49:08.715Z,100483.59
2019-02-06T09:51:38.083Z,100482.78
2019-02-06T09:54:07.704Z,100481.30
2019-02-06T09:56:37.076Z,100477.99
2019-02-06T09:59:06.537Z,100484.84
2019-02-06T10:01:37.050Z,100483.79
2019-02-06T10:04:06.451Z,100484.89
2019-02-06T10:06:35.895Z,100480.18
2019-02-06T10:09:08.047Z,100485.51
2019-02-06T10:11:37.456Z,100475.34
2019-02-06T10:14:06.793Z,100476.22
2019-02-06T10:16:36.174Z,100478.41
2019-02-06T10:19:05.621Z,100480.22
2019-02-06T10:21:35.003Z,100485.20
2019-02-06T10:24:04.477Z,100484.45
2019-02-06T10:26:33.836Z,100482.56
2019-02-06T10:29:03.281Z,100486.67
2019-02-06T10:31:33.030Z,100469.36
2019-02-06T10:34:02.572Z,100476.66
2019-02-06T10:36:31.958Z,100467.47
2019-02-06T10:39:01.335Z,100467.75
2019-02-06T10:41:31.850Z,100471.76
2019-02-06T10:44:01.352Z,100464.37
2019-02-06T10:46:31.069Z,100461.48
2019-02-06T10:49:00.453Z,100453.18
2019-02-06T10:51:29.918Z,100451.90
2019-02-06T10:53:59.313Z,100451.68
2019-02-06T10:56:28.693Z,100446.78
2019-02-06T10:58:58.060Z,100439.20
2019-02-06T11:01:28.712Z,100426.63
2019-02-06T11:03:58.084Z,100433.58
2019-02-06T11:06:27.526Z,100426.86
2019-02-06T11:08:56.908Z,100431.36
2019-02-06T11:11:26.298Z,100427.63
2019-02-06T11:13:55.672Z,100419.06
2019-02-06T11:16:25.125Z,100415.95
2019-02-06T11:18:54.508Z,100409.54
2019-02-06T11:21:24.046Z,100399.95
2019-02-06T11:23:53.429Z,100399.06
2019-02-06T11:26:22.813Z,100400.58
2019-02-06T11:28:52.181Z,100373.78
2019-02-06T11:31:21.633Z,100387.02
2019-02-06T11:33:50.995Z,100382.39
2019-02-06T11:36:24.232Z,100380.95
2019-02-06T11:38:51.867Z,100371.64
2019-02-06T11:41:21.244Z,100360.64
2019-02-06T11:43:50.924Z,100351.19
2019-02-06T11:46:20.304Z,100354.53
2019-02-06T11:48:49.678Z,100359.86
2019-02-06T11:51:20.196Z,100358.58
2019-02-06T11:53:49.581Z,100356.75
2019-02-06T11:56:18.957Z,100350.13
2019-02-06T11:58:48.329Z,100362.68
2019-02-06T12:01:19.343Z,100349.89
2019-02-06T12:03:48.718Z,100345.05
2019-02-06T12:06:18.141Z,100349.15
2019-02-06T12:08:47.516Z,100341.66
2019-02-06T12:11:17.355Z,100336.95
2019-02-06T12:13:46.805Z,100332.33
2019-02-06T12:16:16.451Z,100342.66
2019-02-06T12:18:45.795Z,100321.62
2019-02-06T12:21:17.922Z,100316.35
2019-02-06T12:23:46.280Z,100308.66
2019-02-06T12:26:15.714Z,100311.13
2019-02-06T12:28:45.089Z,100297.58
2019-02-06T12:31:14.684Z,100302.32
2019-02-06T12:33:44.070Z,100299.94
2019-02-06T12:36:15.826Z,100301.61
2019-02-06T12:38:52.978Z,100296.02
2019-02-06T12:41:16.144Z,100301.27
2019-02-06T12:43:45.878Z,100293.78
2019-02-06T12:46:15.250Z,100293.41
2019-02-06T12:48:45.615Z,100294.30
2019-02-06T12:51:14.998Z,100288.97
2019-02-06T12:53:44.379Z,100287.78
2019-02-06T12:56:13.851Z,100287.70
2019-02-06T12:58:43.211Z,100280.46
2019-02-06T13:01:12.928Z,100271.44
2019-02-06T13:03:42.339Z,100271.68
2019-02-06T13:06:11.726Z,100264.09
2019-02-06T13:08:41.304Z,100271.06
2019-02-06T13:11:12.205Z,100269.17
2019-02-06T13:13:41.576Z,100260.60
2019-02-06T13:16:10.973Z,100263.09
2019-02-06T13:18:40.695Z,100260.20
2019-02-06T13:21:16.978Z,100261.17
2019-02-06T13:23:49.390Z,100260.16
2019-02-06T13:26:18.579Z,100244.00
2019-02-06T13:28:47.966Z,100245.51
2019-02-06T13:31:17.353Z,100237.00
2019-02-06T13:33:46.987Z,100241.00
2019-02-06T13:36:17.638Z,100240.43
2019-02-06T13:38:47.022Z,100233.66
2019-02-06T13:41:16.427Z,100230.50
2019-02-06T13:43:45.856Z,100233.05
2019-02-06T13:46:15.247Z,100224.91
2019-02-06T13:48:44.639Z,100234.43
2019-02-06T13:51:16.552Z,100226.96
2019-02-06T13:53:45.591Z,100229.05
2019-02-06T13:56:15.331Z,100226.41
2019-02-06T13:58:44.730Z,100227.14
2019-02-06T14:01:25.114Z,100229.23
2019-02-06T14:03:56.756Z,100227.77
2019-02-06T14:06:26.311Z,100222.11
2019-02-06T14:08:55.697Z,100211.88
2019-02-06T14:11:25.352Z,100209.04
2019-02-06T14:13:54.766Z,100211.88
2019-02-06T14:16:43.447Z,100211.09
2019-02-06T14:19:13.127Z,100214.31
2019-02-06T14:21:42.496Z,100199.33
2019-02-06T14:24:22.591Z,100202.02
2019-02-06T14:26:59.463Z,100200.52
2019-02-06T14:29:45.174Z,100198.22
2019-02-06T14:32:21.737Z,100203.81
2019-02-06T14:35:29.790Z,100206.02
2019-02-06T14:38:31.096Z,100199.34
2019-02-06T14:41:08.839Z,100196.37
2019-02-06T14:44:00.337Z,100198.43
2019-02-06T14:46:56.482Z,100180.20
2019-02-06T14:49:51.134Z,100185.77
2019-02-06T14:52:45.898Z,100184.52
2019-02-06T14:55:25.462Z,100177.02
2019-02-06T14:58:22.275Z,100173.63
2019-02-06T15:01:14.216Z,100170.02
2019-02-06T15:04:10.154Z,100168.24
2019-02-06T15:07:19.501Z,100175.12
2019-02-06T15:10:25.696Z,100168.55
2019-02-06T15:13:33.110Z,100161.14
2019-02-06T15:16:34.027Z,100157.09
2019-02-06T15:19:19.824Z,100150.84
2019-02-06T15:22:11.889Z,100146.41
2019-02-06T15:24:54.508Z,100148.30
2019-02-06T15:27:59.813Z,100145.98
2019-02-06T15:30:42.495Z,100134.42
2019-02-06T15:33:34.354Z,100130.27
2019-02-06T15:36:17.379Z,100135.06
2019-02-06T15:38:56.737Z,100125.48
2019-02-06T15:41:42.763Z,100128.46
2019-02-06T15:44:22.768Z,100130.58
2019-02-06T15:47:25.572Z,100126.52
2019-02-06T15:50:14.281Z,100124.13
2019-02-06T15:53:02.649Z,100129.97
2019-02-06T15:56:01.189Z,100127.91
2019-02-06T15:58:41.596Z,100125.30
2019-02-06T16:01:35.737Z,100119.97
2019-02-06T16:04:30.348Z,100114.36
2019-02-06T16:07:26.980Z,100115.45
2019-02-06T16:10:26.961Z,100117.12
2019-02-06T16:13:03.548Z,100116.72
2019-02-06T16:16:09.644Z,100114.95
2019-02-06T16:18:43.645Z,100113.82
2019-02-06T16:21:27.625Z,100107.47
2019-02-06T16:24:25.550Z,100103.31
2019-02-06T16:27:14.347Z,100111.99
2019-02-06T16:30:00.340Z,100117.74
2019-02-06T16:32:41.271Z,100116.38
2019-02-06T16:35:37.322Z,100110.33
2019-02-06T16:38:27.670Z,100095.73
2019-02-06T16:41:37.752Z,100102.76
2019-02-06T16:44:29.325Z,100090.95
2019-02-06T16:47:15.538Z,100096.17
2019-02-06T16:50:13.862Z,100088.30
2019-02-06T16:52:57.655Z,100077.77
2019-02-06T16:55:55.873Z,100083.91
2019-02-06T16:59:00.631Z,100068.08
2019-02-06T17:01:40.402Z,100069.41
2019-02-06T17:04:29.335Z,100071.41
2019-02-06T17:07:12.358Z,100079.11
2019-02-06T17:09:52.284Z,100074.75
2019-02-06T17:12:28.692Z,100068.44
2019-02-06T17:15:08.201Z,100064.00
2019-02-06T17:17:51.561Z,100065.55
2019-02-06T17:20:44.795Z,100063.47
2019-02-06T17:23:47.780Z,100070.31
2019-02-06T17:26:33.545Z,100072.95
2019-02-06T17:29:13.266Z,100070.44
2019-02-06T17:32:14.708Z,100066.39
2019-02-06T17:35:01.179Z,100065.18
2019-02-06T17:37:40.727Z,100060.19
2019-02-06T17:40:23.905Z,100064.36
2019-02-06T17:43:18.623Z,100066.44
2019-02-06T17:46:12.229Z,100064.11
2019-02-06T17:49:13.406Z,100063.38
2019-02-06T17:52:14.682Z,100064.77
2019-02-06T17:55:17.703Z,100061.95
2019-02-06T17:57:55.748Z,100053.66
2019-02-06T18:00:32.951Z,100049.53
2019-02-06T18:03:07.857Z,100042.14
2019-02-06T18:05:40.115Z,100040.81
2019-02-06T18:08:15.278Z,100050.52
2019-02-06T18:10:49.999Z,100048.01
2019-02-06T18:13:56.004Z,100051.39
2019-02-06T18:16:29.245Z,100048.27
2019-02-06T18:19:05.654Z,100053.21
2019-02-06T18:21:54.443Z,100044.45
2019-02-06T18:24:23.892Z,100048.17
2019-02-06T18:26:54.360Z,100040.64
2019-02-06T18:29:23.806Z,100033.81
2019-02-06T18:31:53.259Z,100032.78
2019-02-06T18:34:22.625Z,100037.27
2019-02-06T18:36:52.067Z,100038.99
2019-02-06T18:39:21.734Z,100036.09
2019-02-06T18:41:51.465Z,100037.41
2019-02-06T18:44:20.974Z,100025.96
2019-02-06T18:46:53.332Z,100017.92
2019-02-06T18:49:23.024Z,100015.12
2019-02-06T18:51:52.558Z,100007.96
2019-02-06T18:54:22.016Z,100006.22
2019-02-06T18:56:51.397Z,100005.99
2019-02-06T18:59:21.817Z,100004.30
2019-02-06T19:01:51.608Z,99998.70
2019-02-06T19:04:20.970Z,100001.97
2019-02-06T19:06:50.575Z,99997.38
2019-02-06T19:09:20.218Z,99996.27
2019-02-06T19:11:49.668Z,99991.84
2019-02-06T19:14:19.545Z,99990.94
2019-02-06T19:16:49.063Z,99986.19
2019-02-06T19:19:25.173Z,99982.02
2019-02-06T19:21:49.815Z,99984.72
2019-02-06T19:24:19.458Z,99980.38
2019-02-06T19:26:48.918Z,99983.39
2019-02-06T19:29:18.280Z,99980.91
2019-02-06T19:31:47.727Z,99974.88
2019-02-06T19:34:17.415Z,99974.52
2019-02-06T19:36:46.790Z,99971.08
2019-02-06T19:39:16.168Z,99971.44
2019-02-06T19:41:45.532Z,99965.94
2019-02-06T19:44:15.305Z,99964.75
2019-02-06T19:46:44.670Z,99967.80
2019-02-06T19:49:14.047Z,99962.30
2019-02-06T19:51:43.410Z,99958.28
2019-02-06T19:54:13.096Z,99960.66
2019-02-06T19:56:42.507Z,99959.99
2019-02-06T19:59:11.989Z,99955.28
2019-02-06T20:01:41.596Z,99947.77
2019-02-06T20:04:11.377Z,99943.92
2019-02-06T20:06:40.699Z,99937.26
2019-02-06T20:09:10.407Z,99935.61
2019-02-06T20:11:39.955Z,99932.45
2019-02-06T20:14:09.959Z,99929.02
2019-02-06T20:16:39.386Z,99926.95
2019-02-06T20:19:08.795Z,99923.91
2019-02-06T20:21:38.258Z,99919.25
2019-02-06T20:24:08.249Z,99909.44
2019-02-06T20:26:37.602Z,99911.91
2019-02-06T20:29:07.058Z,99908.44
2019-02-06T20:31:38.060Z,99909.20
2019-02-06T20:34:07.410Z,99910.64
2019-02-06T20:36:36.866Z,99905.84
2019-02-06T20:39:08.047Z,99906.56
2019-02-06T20:41:37.456Z,99903.52
2019-02-06T20:44:06.906Z,99902.30
2019-02-06T20:46:36.513Z,99893.95
2019-02-06T20:49:07.963Z,99894.13
2019-02-06T20:51:37.447Z,99887.09
2019-02-06T20:54:06.973Z,99891.94
2019-02-06T20:56:36.381Z,99884.41
2019-02-06T20:59:05.933Z,99892.42
2019-02-06T21:01:35.420Z,99887.30
2019-02-06T21:04:05.139Z,99889.36
2019-02-06T21:06:34.504Z,99888.23
2019-02-06T21:09:05.542Z,99880.64
2019-02-06T21:11:34.966Z,99873.88
2019-02-06T21:14:04.606Z,99874.30
2019-02-06T21:16:34.002Z,99862.58
2019-02-06T21:19:04.906Z,99869.27
2019-02-06T21:21:38.024Z,99868.97
2019-02-06T21:24:07.821Z,99869.91
2019-02-06T21:26:37.216Z,99871.81
2019-02-06T21:29:09.619Z,99873.03
2019-02-06T21:31:39.003Z,99874.77
2019-02-06T21:34:08.406Z,99862.78
2019-02-06T21:36:37.819Z,99855.36
2019-02-06T21:39:10.964Z,99856.84
2019-02-06T21:41:40.354Z,99854.98
2019-02-06T21:44:10.727Z,99851.77
2019-02-06T21:46:40.113Z,99853.34
2019-02-06T21:49:09.750Z,99848.12
2019-02-06T21:51:39.146Z,99841.09
2019-02-06T21:54:08.801Z,99831.87
2019-02-06T21:56:38.198Z,99834.55
2019-02-06T21:59:12.234Z,99834.67
2019-02-06T22:01:41.598Z,99827.30
2019-02-06T22:07:40.720Z,99826.08
2019-02-06T22:10:15.199Z,99821.55
2019-02-06T22:12:44.612Z,99823.12
2019-02-06T22:15:24.128Z,99820.20
2019-02-06T22:17:53.796Z,99811.08
2019-02-06T22:20:23.494Z,99797.65
2019-02-06T22:22:52.879Z,99788.31
2019-02-06T22:25:25.073Z,99788.73
2019-02-06T22:27:54.702Z,99789.44
2019-02-06T22:30:29.994Z,99786.59
2019-02-06T22:32:59.431Z,99776.48
2019-02-06T22:35:28.878Z,99780.23
2019-02-06T22:37:58.296Z,99775.13
2019-02-06T22:40:27.928Z,99769.77
2019-02-06T22:42:59.090Z,99762.48
2019-02-06T22:45:31.414Z,99758.26
2019-02-06T22:48:02.086Z,99747.64
2019-02-06T22:50:36.494Z,99756.83
2019-02-06T22:53:06.000Z,99751.06
2019-02-06T22:55:35.404Z,99745.04
2019-02-06T22:58:05.318Z,99739.57
2019-02-06T23:01:01.942Z,99732.76
2019-02-06T23:03:37.577Z,99736.23
2019-02-06T23:06:07.711Z,99736.70
2019-02-06T23:08:37.167Z,99734.96
2019-02-06T23:11:07.019Z,99728.89
2019-02-06T23:13:37.386Z,99726.14
2019-02-06T23:16:07.185Z,99719.70
2019-02-06T23:18:36.551Z,99715.97
2019-02-06T23:21:06.758Z,99710.13
2019-02-06T23:23:36.836Z,99702.52
2019-02-06T23:26:06.463Z,99698.31
2019-02-06T23:28:35.943Z,99696.81
2019-02-06T23:31:05.382Z,99689.05
2019-02-06T23:33:34.842Z,99686.67
2019-02-06T23:36:04.806Z,99681.29
2019-02-06T23:38:34.450Z,99671.70
2019-02-06T23:41:05.610Z,99671.70
2019-02-06T23:43:35.249Z,99666.10
2019-02-06T23:46:05.219Z,99659.14
2019-02-06T23:48:34.600Z,99655.23
2019-02-06T23:51:04.059Z,99648.31
2019-02-06T23:53:33.429Z,99648.20
2019-02-06T23:56:02.836Z,99637.88
2019-02-06T23:58:32.296Z,99625.78
